createdAt,value
2023-10-20T00:00:43.822Z,84.80
2023-10-20T00:03:11.031Z,85.00
2023-10-20T00:05:38.666Z,85.40
2023-10-20T00:08:06.221Z,85.90
2023-10-20T00:10:40.709Z,85.90
2023-10-20T00:13:08.099Z,85.70
2023-10-20T00:15:36.121Z,85.30
2023-10-20T00:18:05.313Z,85.30
2023-10-20T00:20:32.401Z,85.70
2023-10-20T00:22:59.430Z,85.70
2023-10-20T00:25:26.468Z,85.40
2023-10-20T00:27:53.507Z,84.80
2023-10-20T00:30:20.652Z,85.50
2023-10-20T00:32:47.802Z,85.80
2023-10-20T00:35:15.447Z,86.20
2023-10-20T00:37:43.233Z,86.20
2023-10-20T00:40:11.712Z,86.30
2023-10-20T00:42:39.346Z,86.20
2023-10-20T00:45:08.262Z,86.30
2023-10-20T00:47:38.088Z,86.40
2023-10-20T00:50:06.349Z,86.20
2023-10-20T00:52:37.204Z,85.80
2023-10-20T00:55:08.450Z,85.30
2023-10-20T00:57:36.447Z,86.20
2023-10-20T01:00:05.490Z,86.60
2023-10-20T01:02:33.949Z,86.50
2023-10-20T01:05:01.168Z,86.50
2023-10-20T01:07:28.263Z,86.60
2023-10-20T01:10:01.049Z,86.80
2023-10-20T01:12:28.295Z,87.20
2023-10-20T01:14:55.260Z,87.50
2023-10-20T01:17:22.241Z,87.80
2023-10-20T01:19:49.240Z,87.90
2023-10-20T01:22:16.205Z,87.60
2023-10-20T01:24:43.235Z,87.60
2023-10-20T01:27:10.237Z,87.30
2023-10-20T01:29:37.356Z,87.30
2023-10-20T01:32:04.865Z,87.30
2023-10-20T01:34:32.647Z,86.80
2023-10-20T01:37:01.273Z,86.80
2023-10-20T01:39:28.229Z,86.80
2023-10-20T01:41:55.213Z,86.70
2023-10-20T01:44:22.442Z,86.50
2023-10-20T01:46:52.309Z,86.50
2023-10-20T01:49:19.412Z,86.50
2023-10-20T01:51:46.395Z,86.30
2023-10-20T01:54:13.612Z,86.10
2023-10-20T01:56:40.688Z,86.30
2023-10-20T01:59:07.682Z,86.30
2023-10-20T02:01:35.004Z,86.40
2023-10-20T02:04:02.395Z,86.30
2023-10-20T02:06:29.419Z,86.40
2023-10-20T02:08:56.507Z,86.20
2023-10-20T02:11:23.537Z,86.00
2023-10-20T02:13:50.574Z,85.80
2023-10-20T02:16:17.580Z,86.00
2023-10-20T02:18:45.363Z,85.20
2023-10-20T02:21:12.374Z,85.70
2023-10-20T02:23:39.833Z,85.80
2023-10-20T02:26:09.061Z,86.10
2023-10-20T02:28:37.000Z,86.30
2023-10-20T02:31:13.345Z,86.40
2023-10-20T02:33:40.538Z,86.30
2023-10-20T02:36:07.619Z,86.10
2023-10-20T02:38:34.740Z,85.90
2023-10-20T02:41:02.236Z,85.80
2023-10-20T02:43:29.688Z,85.70
2023-10-20T02:45:57.428Z,85.80
2023-10-20T02:48:25.502Z,85.70
2023-10-20T02:50:52.819Z,85.90
2023-10-20T02:53:19.658Z,86.10
2023-10-20T02:55:48.667Z,86.20
2023-10-20T02:58:17.175Z,86.40
2023-10-20T03:00:45.631Z,86.80
2023-10-20T03:03:14.800Z,86.60
2023-10-20T03:05:44.658Z,86.70
2023-10-20T03:08:12.473Z,86.80
2023-10-20T03:10:39.618Z,86.50
2023-10-20T03:13:06.442Z,86.40
2023-10-20T03:15:33.465Z,86.40
2023-10-20T03:18:00.678Z,86.30
2023-10-20T03:20:31.427Z,86.20
2023-10-20T03:22:59.594Z,86.30
2023-10-20T03:25:27.411Z,86.10
2023-10-20T03:27:54.245Z,86.20
2023-10-20T03:30:21.042Z,86.10
2023-10-20T03:32:49.388Z,86.20
2023-10-20T03:35:17.366Z,86.20
2023-10-20T03:37:44.386Z,86.30
2023-10-20T03:40:17.358Z,86.20
2023-10-20T03:42:44.950Z,86.50
2023-10-20T03:45:14.912Z,86.50
2023-10-20T03:47:42.024Z,86.60
2023-10-20T03:50:17.340Z,86.70
2023-10-20T03:52:47.327Z,86.60
2023-10-20T03:55:15.123Z,86.50
2023-10-20T03:57:42.823Z,86.30
2023-10-20T04:00:22.906Z,85.80
2023-10-20T04:02:50.177Z,86.20
2023-10-20T04:05:17.548Z,86.40
2023-10-20T04:07:44.531Z,86.30
2023-10-20T04:10:11.339Z,86.30
2023-10-20T04:12:40.357Z,86.00
2023-10-20T04:15:10.358Z,86.20
2023-10-20T04:17:40.019Z,86.10
2023-10-20T04:20:16.864Z,86.20
2023-10-20T04:22:44.587Z,86.30
2023-10-20T04:25:13.852Z,86.20
2023-10-20T04:27:50.871Z,86.20
2023-10-20T04:30:37.523Z,86.10
2023-10-20T04:33:24.590Z,85.80
2023-10-20T04:36:10.401Z,85.70
2023-10-20T04:38:56.003Z,85.70
2023-10-20T04:41:41.868Z,85.90
2023-10-20T04:44:17.544Z,86.20
2023-10-20T04:47:06.675Z,86.50
2023-10-20T04:49:52.091Z,86.40
2023-10-20T04:52:37.614Z,86.40
2023-10-20T04:55:13.529Z,86.60
2023-10-20T04:57:59.303Z,86.70
2023-10-20T05:00:26.926Z,86.70
2023-10-20T05:02:59.861Z,86.70
2023-10-20T05:05:27.162Z,86.70
2023-10-20T05:07:56.837Z,86.70
2023-10-20T05:10:24.993Z,86.60
2023-10-20T05:12:52.169Z,86.60
2023-10-20T05:15:19.130Z,86.50
2023-10-20T05:17:47.556Z,86.40
2023-10-20T05:20:14.523Z,86.30
2023-10-20T05:22:42.572Z,86.10
2023-10-20T05:25:12.670Z,85.80
2023-10-20T05:27:40.036Z,86.00
2023-10-20T05:30:10.276Z,85.90
2023-10-20T05:32:38.892Z,85.90
2023-10-20T05:35:08.450Z,86.00
2023-10-20T05:37:35.436Z,86.10
2023-10-20T05:40:04.448Z,86.20
2023-10-20T05:42:32.133Z,86.40
2023-10-20T05:45:11.071Z,86.50
2023-10-20T05:47:39.376Z,86.50
2023-10-20T05:50:07.596Z,86.50
2023-10-20T05:52:36.823Z,86.50
2023-10-20T05:55:04.621Z,86.40
2023-10-20T05:57:31.945Z,86.30
2023-10-20T06:00:00.635Z,86.20
2023-10-20T06:02:29.009Z,86.20
2023-10-20T06:04:56.149Z,85.90
2023-10-20T06:07:23.098Z,86.00
2023-10-20T06:09:50.742Z,86.00
2023-10-20T06:12:18.003Z,86.20
2023-10-20T06:14:45.181Z,86.50
2023-10-20T06:17:12.145Z,86.40
2023-10-20T06:19:38.985Z,86.80
2023-10-20T06:22:06.661Z,87.20
2023-10-20T06:24:34.462Z,87.30
2023-10-20T06:27:03.808Z,87.00
2023-10-20T06:29:34.599Z,87.20
2023-10-20T06:32:07.384Z,87.10
2023-10-20T06:34:36.251Z,87.10
2023-10-20T06:37:23.301Z,87.00
2023-10-20T06:39:50.006Z,87.20
2023-10-20T06:42:17.837Z,87.30
2023-10-20T06:44:45.330Z,87.30
2023-10-20T06:47:12.407Z,87.40
2023-10-20T06:49:39.264Z,87.40
2023-10-20T06:52:06.025Z,87.00
2023-10-20T06:54:33.004Z,86.90
2023-10-20T06:57:00.581Z,86.80
2023-10-20T06:59:27.515Z,86.70
2023-10-20T07:02:01.051Z,86.60
2023-10-20T07:04:28.756Z,86.40
2023-10-20T07:06:58.228Z,86.80
2023-10-20T07:09:25.352Z,86.70
2023-10-20T07:11:53.365Z,86.80
2023-10-20T07:14:20.279Z,86.70
2023-10-20T07:16:47.098Z,86.70
2023-10-20T07:19:13.834Z,86.60
2023-10-20T07:21:40.654Z,86.60
2023-10-20T07:24:07.986Z,86.60
2023-10-20T07:26:35.817Z,86.40
2023-10-20T07:29:03.267Z,86.20
2023-10-20T07:31:30.020Z,86.00
2023-10-20T07:33:57.365Z,86.40
2023-10-20T07:36:24.254Z,86.30
2023-10-20T07:38:51.206Z,86.20
2023-10-20T07:41:18.463Z,86.20
2023-10-20T07:43:45.326Z,86.00
2023-10-20T07:46:18.927Z,86.00
2023-10-20T07:48:46.338Z,85.60
2023-10-20T07:51:13.265Z,86.00
2023-10-20T07:53:40.157Z,86.10
2023-10-20T07:56:06.969Z,86.20
2023-10-20T07:58:34.360Z,86.20
2023-10-20T08:01:01.968Z,86.20
2023-10-20T08:03:29.083Z,86.00
2023-10-20T08:05:56.533Z,86.00
2023-10-20T08:08:23.477Z,85.90
2023-10-20T08:10:50.928Z,85.80
2023-10-20T08:13:18.925Z,85.80
2023-10-20T08:15:45.850Z,86.10
2023-10-20T08:18:12.773Z,86.00
2023-10-20T08:20:40.410Z,85.80
2023-10-20T08:23:07.287Z,86.00
2023-10-20T08:25:38.132Z,86.10
2023-10-20T08:28:05.996Z,86.30
2023-10-20T08:30:32.803Z,86.00
2023-10-20T08:33:00.514Z,85.90
2023-10-20T08:35:27.762Z,84.00
2023-10-20T08:37:54.632Z,83.60
2023-10-20T08:40:21.468Z,83.20
2023-10-20T08:42:48.481Z,82.40
2023-10-20T08:45:16.917Z,82.80
2023-10-20T08:47:44.516Z,82.30
2023-10-20T08:50:17.244Z,82.20
2023-10-20T08:52:45.903Z,82.00
2023-10-20T08:55:14.461Z,81.50
2023-10-20T08:57:41.339Z,81.30
2023-10-20T09:00:09.260Z,81.30
2023-10-20T09:02:39.523Z,81.30
2023-10-20T09:05:07.970Z,81.40
2023-10-20T09:07:35.165Z,81.70
2023-10-20T09:10:02.410Z,81.70
2023-10-20T09:12:33.363Z,81.80
2023-10-20T09:15:00.253Z,81.80
2023-10-20T09:17:28.108Z,80.90
2023-10-20T09:20:06.069Z,79.80
2023-10-20T09:22:32.990Z,79.30
2023-10-20T09:25:00.269Z,79.10
2023-10-20T09:27:27.158Z,77.60
2023-10-20T09:29:55.434Z,77.60
2023-10-20T09:32:22.233Z,66.70
2023-10-20T09:34:50.113Z,65.10
2023-10-20T09:37:19.883Z,64.20
2023-10-20T09:39:47.472Z,63.10
2023-10-20T09:42:16.207Z,61.50
2023-10-20T09:44:56.948Z,59.70
2023-10-20T09:47:27.154Z,60.40
2023-10-20T09:49:54.552Z,59.90
2023-10-20T09:52:21.379Z,61.00
2023-10-20T09:54:51.377Z,60.60
2023-10-20T09:57:20.727Z,62.50
2023-10-20T09:59:53.997Z,63.60
2023-10-20T10:02:29.063Z,63.10
2023-10-20T10:04:58.036Z,63.40
2023-10-20T10:07:34.543Z,62.80
2023-10-20T10:10:01.668Z,62.60
2023-10-20T10:12:29.788Z,62.90
2023-10-20T10:15:15.865Z,63.50
2023-10-20T10:17:52.884Z,62.70
2023-10-20T10:20:29.796Z,64.10
2023-10-20T10:23:07.701Z,63.90
2023-10-20T10:25:42.961Z,65.00
2023-10-20T10:28:16.246Z,63.60
2023-10-20T10:30:44.370Z,64.70
2023-10-20T10:33:14.650Z,65.40
2023-10-20T10:35:41.921Z,65.60
2023-10-20T10:38:24.953Z,65.30
2023-10-20T10:40:52.578Z,65.30
2023-10-20T10:43:20.910Z,65.20
2023-10-20T10:45:54.507Z,67.10
2023-10-20T10:48:26.049Z,66.50
2023-10-20T10:50:52.963Z,67.00
2023-10-20T10:53:20.193Z,66.30
2023-10-20T10:55:47.077Z,67.40
2023-10-20T10:58:14.956Z,67.60
2023-10-20T11:00:44.453Z,67.80
2023-10-20T11:03:12.682Z,68.20
2023-10-20T11:05:40.531Z,68.70
2023-10-20T11:08:09.149Z,70.10
2023-10-20T11:10:43.399Z,70.40
2023-10-20T11:13:21.178Z,70.40
2023-10-20T11:15:49.141Z,70.90
2023-10-20T11:18:18.112Z,70.80
2023-10-20T11:20:48.926Z,71.20
2023-10-20T11:23:20.421Z,70.90
2023-10-20T11:25:49.090Z,71.70
2023-10-20T11:28:15.848Z,70.40
2023-10-20T11:30:46.301Z,69.10
2023-10-20T11:33:15.967Z,69.10
2023-10-20T11:35:44.238Z,69.10
2023-10-20T11:38:11.029Z,70.10
2023-10-20T11:40:38.955Z,69.40
2023-10-20T11:43:05.795Z,69.40
2023-10-20T11:45:32.888Z,69.90
2023-10-20T11:47:59.967Z,70.70
2023-10-20T11:50:26.910Z,70.30
2023-10-20T11:52:53.800Z,70.40
2023-10-20T11:55:20.604Z,71.20
2023-10-20T11:57:47.397Z,71.10
2023-10-20T12:00:15.006Z,71.30
2023-10-20T12:02:43.021Z,71.20
2023-10-20T12:05:11.207Z,70.50
2023-10-20T12:07:38.367Z,70.70
2023-10-20T12:10:06.689Z,69.00
2023-10-20T12:12:34.647Z,69.20
2023-10-20T12:15:01.667Z,69.90
2023-10-20T12:17:28.941Z,69.30
2023-10-20T12:19:55.829Z,69.70
2023-10-20T12:22:22.564Z,70.00
2023-10-20T12:24:49.256Z,69.30
2023-10-20T12:27:15.986Z,70.10
2023-10-20T12:29:42.734Z,70.90
2023-10-20T12:32:13.637Z,69.40
2023-10-20T12:34:41.121Z,70.30
2023-10-20T12:37:07.856Z,70.40
2023-10-20T12:39:34.642Z,69.90
2023-10-20T12:42:04.512Z,69.70
2023-10-20T12:44:31.525Z,69.70
2023-10-20T12:46:58.418Z,69.90
2023-10-20T12:49:25.252Z,69.00
2023-10-20T12:51:52.082Z,68.90
2023-10-20T12:54:18.958Z,69.00
2023-10-20T12:56:45.761Z,69.80
2023-10-20T12:59:12.488Z,69.80
2023-10-20T13:01:39.359Z,69.70
2023-10-20T13:04:06.504Z,70.20
2023-10-20T13:06:42.571Z,71.30
2023-10-20T13:09:18.508Z,72.90
2023-10-20T13:11:45.336Z,73.20
2023-10-20T13:14:12.061Z,73.50
2023-10-20T13:16:40.341Z,74.00
2023-10-20T13:19:07.580Z,74.50
2023-10-20T13:21:34.294Z,74.80
2023-10-20T13:24:01.082Z,75.20
2023-10-20T13:26:27.847Z,75.50
2023-10-20T13:28:54.603Z,75.60
2023-10-20T13:31:24.264Z,75.80
2023-10-20T13:33:51.062Z,76.40
2023-10-20T13:36:19.531Z,76.60
2023-10-20T13:38:46.682Z,76.70
2023-10-20T13:41:13.470Z,77.20
2023-10-20T13:43:40.300Z,77.40
2023-10-20T13:46:07.115Z,77.70
2023-10-20T13:48:33.955Z,78.00
2023-10-20T13:51:00.932Z,78.70
2023-10-20T13:53:28.035Z,78.50
2023-10-20T13:55:55.363Z,78.90
2023-10-20T13:58:22.815Z,77.70
2023-10-20T14:00:52.171Z,75.60
2023-10-20T14:03:19.215Z,75.60
2023-10-20T14:05:56.059Z,75.80
2023-10-20T14:08:23.659Z,75.60
2023-10-20T14:10:50.642Z,74.00
2023-10-20T14:13:18.206Z,74.50
2023-10-20T14:15:45.167Z,74.50
2023-10-20T14:18:13.192Z,74.50
2023-10-20T14:20:40.851Z,73.80
2023-10-20T14:23:08.970Z,74.10
2023-10-20T14:25:36.546Z,74.00
2023-10-20T14:28:03.501Z,74.20
2023-10-20T14:30:30.281Z,73.50
2023-10-20T14:32:57.111Z,74.40
2023-10-20T14:35:23.977Z,74.30
2023-10-20T14:37:50.964Z,74.30
2023-10-20T14:40:17.867Z,73.70
2023-10-20T14:42:44.849Z,73.40
2023-10-20T14:45:12.678Z,73.20
2023-10-20T14:47:39.753Z,73.50
2023-10-20T14:50:07.664Z,73.30
2023-10-20T14:52:34.381Z,73.70
2023-10-20T14:55:01.110Z,73.10
2023-10-20T14:57:29.004Z,73.40
2023-10-20T14:59:56.155Z,73.90
2023-10-20T15:02:23.196Z,74.00
2023-10-20T15:04:50.025Z,74.40
2023-10-20T15:07:16.847Z,74.20
2023-10-20T15:09:43.969Z,74.20
2023-10-20T15:12:10.818Z,74.50
2023-10-20T15:14:37.670Z,74.90
2023-10-20T15:17:04.349Z,75.20
2023-10-20T15:19:30.997Z,75.90
2023-10-20T15:21:58.236Z,76.00
2023-10-20T15:24:24.913Z,76.20
2023-10-20T15:26:51.740Z,76.40
2023-10-20T15:29:18.904Z,76.20
2023-10-20T15:31:45.798Z,77.10
2023-10-20T15:34:12.652Z,76.90
2023-10-20T15:36:49.427Z,77.20
2023-10-20T15:39:16.706Z,77.30
2023-10-20T15:41:43.462Z,78.20
2023-10-20T15:44:10.383Z,79.00
2023-10-20T15:46:37.280Z,79.10
2023-10-20T15:49:05.152Z,79.20
2023-10-20T15:51:31.799Z,79.50
2023-10-20T15:53:58.514Z,79.80
2023-10-20T15:56:25.770Z,79.90
2023-10-20T15:58:52.525Z,79.70
2023-10-20T16:01:19.238Z,79.10
2023-10-20T16:03:47.127Z,79.40
2023-10-20T16:06:13.847Z,79.40
2023-10-20T16:08:40.568Z,79.60
2023-10-20T16:11:07.259Z,79.30
2023-10-20T16:13:34.078Z,79.60
2023-10-20T16:16:00.811Z,79.70
2023-10-20T16:18:27.615Z,80.70
2023-10-20T16:20:54.425Z,80.70
2023-10-20T16:23:22.673Z,80.80
2023-10-20T16:25:49.686Z,80.50
2023-10-20T16:28:16.378Z,80.20
2023-10-20T16:30:43.086Z,80.00
2023-10-20T16:33:09.886Z,79.90
2023-10-20T16:35:36.685Z,80.40
2023-10-20T16:38:03.352Z,80.10
2023-10-20T16:40:31.606Z,80.50
2023-10-20T16:42:58.381Z,80.80
2023-10-20T16:45:25.074Z,80.70
2023-10-20T16:47:52.476Z,80.60
2023-10-20T16:50:19.382Z,80.30
2023-10-20T16:52:46.007Z,80.30
2023-10-20T16:55:12.700Z,80.20
2023-10-20T16:57:39.359Z,80.00
2023-10-20T17:00:07.151Z,79.80
2023-10-20T17:02:34.156Z,80.00
2023-10-20T17:05:00.857Z,79.90
2023-10-20T17:07:27.536Z,80.00
2023-10-20T17:09:54.260Z,79.80
2023-10-20T17:12:21.481Z,79.80
2023-10-20T17:14:48.423Z,79.80
2023-10-20T17:17:15.556Z,79.60
2023-10-20T17:19:42.208Z,79.60
2023-10-20T17:22:08.878Z,79.50
2023-10-20T17:24:35.530Z,79.10
2023-10-20T17:27:04.128Z,78.50
2023-10-20T17:29:30.917Z,77.70
2023-10-20T17:31:57.575Z,78.50
2023-10-20T17:34:24.281Z,78.70
2023-10-20T17:36:51.514Z,79.20
2023-10-20T17:39:19.476Z,79.50
2023-10-20T17:41:48.925Z,80.10
2023-10-20T17:44:15.953Z,79.80
2023-10-20T17:46:42.618Z,79.90
2023-10-20T17:49:10.188Z,80.20
2023-10-20T17:51:37.136Z,80.10
2023-10-20T17:54:04.011Z,80.40
2023-10-20T17:56:30.840Z,80.40
2023-10-20T17:58:57.522Z,80.20
2023-10-20T18:01:24.277Z,80.20
2023-10-20T18:03:51.063Z,80.20
2023-10-20T18:06:21.910Z,80.10
2023-10-20T18:08:50.799Z,79.80
2023-10-20T18:11:20.692Z,79.90
2023-10-20T18:13:48.253Z,79.70
2023-10-20T18:16:16.010Z,79.80
2023-10-20T18:18:45.308Z,79.80
2023-10-20T18:21:15.587Z,80.00
2023-10-20T18:23:42.241Z,79.60
2023-10-20T18:26:09.145Z,79.60
2023-10-20T18:28:35.807Z,79.30
2023-10-20T18:31:16.199Z,79.10
2023-10-20T18:33:43.239Z,78.70
2023-10-20T18:36:10.127Z,78.50
2023-10-20T18:38:36.855Z,78.40
2023-10-20T18:41:04.236Z,78.30
2023-10-20T18:43:31.208Z,78.10
2023-10-20T18:46:00.968Z,78.20
2023-10-20T18:48:28.500Z,78.00
2023-10-20T18:51:03.877Z,78.10
2023-10-20T18:53:31.584Z,78.10
2023-10-20T18:55:58.356Z,78.40
2023-10-20T18:58:25.424Z,78.50
2023-10-20T19:00:55.340Z,78.50
2023-10-20T19:03:22.246Z,78.40
2023-10-20T19:05:49.693Z,78.20
2023-10-20T19:08:16.943Z,78.10
2023-10-20T19:10:43.728Z,77.80
2023-10-20T19:13:10.698Z,76.80
2023-10-20T19:15:37.507Z,75.30
2023-10-20T19:18:05.020Z,75.40
2023-10-20T19:20:31.782Z,75.70
2023-10-20T19:22:58.651Z,76.20
2023-10-20T19:25:25.297Z,76.30
2023-10-20T19:27:51.938Z,76.80
2023-10-20T19:30:18.843Z,76.90
2023-10-20T19:32:45.677Z,76.90
2023-10-20T19:35:12.612Z,77.10
2023-10-20T19:37:39.256Z,77.50
2023-10-20T19:40:07.002Z,77.80
2023-10-20T19:42:33.786Z,78.00
2023-10-20T19:45:02.191Z,78.00
2023-10-20T19:47:29.134Z,78.40
2023-10-20T19:49:55.831Z,78.30
2023-10-20T19:52:22.527Z,78.70
2023-10-20T19:54:49.392Z,78.80
2023-10-20T19:57:16.054Z,79.20
2023-10-20T19:59:42.811Z,79.10
2023-10-20T20:02:09.570Z,78.80
2023-10-20T20:04:36.429Z,78.50
2023-10-20T20:07:03.171Z,78.80
2023-10-20T20:09:29.806Z,78.90
2023-10-20T20:11:57.099Z,78.80
2023-10-20T20:14:23.830Z,78.60
2023-10-20T20:16:50.585Z,78.40
2023-10-20T20:19:17.304Z,78.40
2023-10-20T20:21:43.967Z,78.60
2023-10-20T20:24:10.730Z,78.90
2023-10-20T20:26:37.491Z,78.80
2023-10-20T20:29:05.512Z,79.00
2023-10-20T20:31:32.405Z,78.90
2023-10-20T20:33:59.303Z,79.00
2023-10-20T20:36:25.970Z,79.20
2023-10-20T20:38:52.963Z,79.00
2023-10-20T20:41:19.788Z,79.20
2023-10-20T20:43:46.645Z,79.20
2023-10-20T20:46:13.433Z,79.10
2023-10-20T20:48:40.257Z,78.00
2023-10-20T20:51:11.026Z,78.50
2023-10-20T20:53:38.038Z,79.40
2023-10-20T20:56:05.303Z,80.10
2023-10-20T20:58:32.326Z,81.30
2023-10-20T21:01:01.246Z,81.50
2023-10-20T21:03:28.193Z,81.50
2023-10-20T21:05:59.128Z,81.50
2023-10-20T21:08:26.040Z,81.20
2023-10-20T21:10:52.688Z,80.40
2023-10-20T21:13:19.348Z,80.20
2023-10-20T21:15:46.111Z,80.40
2023-10-20T21:18:12.871Z,80.50
2023-10-20T21:20:40.147Z,80.60
2023-10-20T21:23:06.981Z,80.20
2023-10-20T21:25:37.931Z,79.90
2023-10-20T21:28:05.288Z,80.60
2023-10-20T21:30:35.414Z,80.70
2023-10-20T21:33:02.351Z,80.60
2023-10-20T21:35:29.388Z,80.80
2023-10-20T21:37:56.027Z,81.20
2023-10-20T21:40:22.662Z,81.00
2023-10-20T21:42:49.289Z,80.90
2023-10-20T21:45:16.046Z,80.70
2023-10-20T21:47:42.826Z,81.20
2023-10-20T21:50:09.681Z,80.50
2023-10-20T21:52:36.342Z,80.50
2023-10-20T21:55:03.080Z,80.70
2023-10-20T21:57:29.729Z,80.70
2023-10-20T21:59:56.569Z,80.20
2023-10-20T22:02:23.367Z,78.40
2023-10-20T22:04:53.853Z,77.80
2023-10-20T22:07:20.518Z,79.60
2023-10-20T22:09:53.791Z,80.30
2023-10-20T22:12:21.410Z,82.50
2023-10-20T22:14:48.138Z,81.50
2023-10-20T22:17:14.841Z,81.30
2023-10-20T22:19:41.487Z,80.30
2023-10-20T22:22:08.725Z,79.50
2023-10-20T22:24:35.429Z,80.10
2023-10-20T22:27:02.119Z,80.80
2023-10-20T22:29:28.797Z,81.10
2023-10-20T22:31:55.465Z,81.10
2023-10-20T22:34:22.109Z,80.30
2023-10-20T22:36:48.926Z,79.90
2023-10-20T22:39:16.040Z,79.70
2023-10-20T22:41:42.851Z,80.10
2023-10-20T22:44:09.685Z,79.70
2023-10-20T22:46:36.404Z,77.60
2023-10-20T22:49:03.289Z,78.40
2023-10-20T22:51:29.972Z,79.50
2023-10-20T22:53:56.665Z,80.10
2023-10-20T22:56:23.910Z,80.40
2023-10-20T22:58:50.637Z,81.10
2023-10-20T23:01:17.346Z,81.50
2023-10-20T23:03:44.305Z,81.40
2023-10-20T23:06:11.120Z,81.50
2023-10-20T23:08:37.902Z,80.20
2023-10-20T23:11:04.969Z,80.20
2023-10-20T23:13:31.684Z,81.90
2023-10-20T23:15:58.352Z,82.10
2023-10-20T23:18:25.234Z,81.80
2023-10-20T23:20:55.611Z,81.30
2023-10-20T23:23:22.462Z,79.10
2023-10-20T23:25:49.145Z,80.40
2023-10-20T23:28:15.807Z,81.90
2023-10-20T23:30:42.484Z,82.40
2023-10-20T23:33:09.256Z,82.50
2023-10-20T23:35:36.058Z,81.90
2023-10-20T23:38:02.742Z,81.30
2023-10-20T23:40:29.376Z,80.90
2023-10-20T23:42:56.021Z,80.70
2023-10-20T23:45:22.683Z,80.10
2023-10-20T23:47:50.077Z,80.70
2023-10-20T23:50:16.763Z,80.80
2023-10-20T23:52:43.431Z,80.60
2023-10-20T23:55:10.074Z,80.60
2023-10-20T23:57:36.744Z,80.40
